Time;durP1;ratioP1;P1;durP2;ratioP2;P2;SDS_P1;SDS_P2;PMS_P1;PMS_P2;Temp;Humidity;BMP_temperature;BMP_pressure;BME280_temperature;BME280_humidity;BME280_pressure;Samples;Min_cycle;Max_cycle;Signal;HPM_P1;HPM_P2
2022/11/11 00:01:08;;;;;;;19.97;11.50;;;;;;;;;;5017490;28;20033;-76
2022/11/11 00:03:34;;;;;;;22.37;10.90;;;;;;;;;;5018662;28;20066;-76
2022/11/11 00:06:08;;;;;;;24.50;12.03;;;;;;;;;;5016405;28;20037;-76
2022/11/11 00:08:34;;;;;;;24.57;10.97;;;;;;;;;;5017858;28;20414;-75
2022/11/11 00:11:04;;;;;;;23.83;10.87;;;;;;;;;;5016703;28;20033;-76
2022/11/11 00:13:31;;;;;;;21.43;11.00;;;;;;;;;;5014133;28;20463;-76
2022/11/11 00:16:03;;;;;;;31.20;12.27;;;;;;;;;;5014924;28;20489;-76
2022/11/11 00:26:46;;;;;;;19.73;10.40;;;;;;;;;;5016435;28;20040;-75
2022/11/11 00:29:12;;;;;;;20.70;11.27;;;;;;;;;;5029880;28;20026;-77
2022/11/11 00:32:21;;;;;;;20.57;10.83;;;;;;;;;;5018418;28;20025;-75
2022/11/11 00:34:24;;;;;;;18.80;10.47;;;;;;;;;;5017303;28;20037;-76
2022/11/11 00:36:50;;;;;;;26.70;10.80;;;;;;;;;;5014696;28;20036;-75
2022/11/11 00:39:16;;;;;;;24.80;12.27;;;;;;;;;;5016115;28;20041;-76
2022/11/11 00:41:42;;;;;;;27.03;11.50;;;;;;;;;;5025210;28;20092;-76
2022/11/11 00:44:08;;;;;;;23.77;10.33;;;;;;;;;;5016725;28;20869;-75
2022/11/11 00:52:03;;;;;;;24.90;11.80;;;;;;;;;;5016347;28;20106;-76
2022/11/11 00:54:29;;;;;;;24.63;13.00;;;;;;;;;;5017814;28;20067;-75
2022/11/11 00:56:55;;;;;;;32.27;12.20;;;;;;;;;;5017916;28;20049;-76
2022/11/11 00:59:21;;;;;;;26.03;12.60;;;;;;;;;;5019456;28;20632;-76
2022/11/11 01:01:50;;;;;;;19.57;12.30;;;;;;;;;;5017187;28;20095;-76
2022/11/11 01:04:16;;;;;;;27.40;12.17;;;;;;;;;;5016085;28;20025;-75
2022/11/11 01:06:42;;;;;;;31.20;12.90;;;;;;;;;;5034404;28;20040;-76
2022/11/11 01:09:08;;;;;;;30.40;13.90;;;;;;;;;;5015961;28;21737;-76
2022/11/11 01:11:34;;;;;;;24.07;13.07;;;;;;;;;;5027629;28;20532;-76
2022/11/11 01:14:02;;;;;;;25.57;13.43;;;;;;;;;;5017356;28;20409;-75
2022/11/11 01:16:28;;;;;;;34.83;13.53;;;;;;;;;;5024388;28;20048;-76
2022/11/11 01:18:54;;;;;;;25.03;13.67;;;;;;;;;;5017353;28;20450;-75
2022/11/11 01:21:22;;;;;;;26.50;12.80;;;;;;;;;;5016964;28;20038;-76
2022/11/11 01:23:48;;;;;;;26.97;13.73;;;;;;;;;;5016848;28;20038;-76
2022/11/11 01:26:16;;;;;;;23.30;12.77;;;;;;;;;;5016044;28;20121;-76
2022/11/11 01:28:42;;;;;;;31.17;14.20;;;;;;;;;;5017916;28;20037;-75
2022/11/11 01:31:11;;;;;;;30.83;14.10;;;;;;;;;;5014980;28;20534;-76
2022/11/11 01:33:38;;;;;;;29.23;12.83;;;;;;;;;;5017136;28;20450;-75
2022/11/11 01:36:08;;;;;;;26.47;13.07;;;;;;;;;;5032426;28;20382;-75
2022/11/11 01:38:37;;;;;;;25.57;12.43;;;;;;;;;;5027935;28;20620;-75
2022/11/11 01:41:31;;;;;;;34.47;15.30;;;;;;;;;;5016057;28;20083;-74
2022/11/11 01:43:50;;;;;;;28.07;13.90;;;;;;;;;;5017355;28;20042;-76
2022/11/11 01:46:36;;;;;;;29.77;14.40;;;;;;;;;;5016330;28;20240;-76
2022/11/11 01:49:17;;;;;;;28.60;15.47;;;;;;;;;;5024787;28;20022;-76
2022/11/11 01:51:46;;;;;;;30.07;14.10;;;;;;;;;;5016030;28;20030;-75
2022/11/11 01:54:16;;;;;;;27.93;13.93;;;;;;;;;;5017218;28;20092;-76
2022/11/11 01:56:47;;;;;;;38.60;15.03;;;;;;;;;;5022466;28;20121;-76
2022/11/11 01:59:16;;;;;;;33.67;15.43;;;;;;;;;;5022220;28;20133;-76
2022/11/11 02:01:42;;;;;;;34.93;17.47;;;;;;;;;;5013504;28;20043;-76
2022/11/11 02:06:55;;;;;;;36.30;16.03;;;;;;;;;;5015379;28;20044;-76
2022/11/11 02:09:22;;;;;;;33.50;15.07;;;;;;;;;;5012727;28;20038;-76
2022/11/11 02:14:41;;;;;;;29.80;14.00;;;;;;;;;;5015687;28;20052;-76
2022/11/11 02:17:09;;;;;;;31.20;15.40;;;;;;;;;;5014576;28;20030;-76
2022/11/11 02:19:54;;;;;;;31.57;13.63;;;;;;;;;;5014466;28;20033;-75
2022/11/11 02:22:26;;;;;;;29.33;14.20;;;;;;;;;;5014636;28;20343;-76
2022/11/11 02:24:53;;;;;;;23.37;12.60;;;;;;;;;;5027675;28;20083;-75
2022/11/11 02:27:19;;;;;;;27.23;14.47;;;;;;;;;;5031013;28;20022;-75
2022/11/11 02:29:49;;;;;;;30.30;14.70;;;;;;;;;;5015344;28;20032;-75
2022/11/11 02:32:18;;;;;;;33.57;16.47;;;;;;;;;;5024152;28;20044;-75
2022/11/11 02:34:44;;;;;;;44.70;18.03;;;;;;;;;;5029146;28;20053;-75
2022/11/11 02:37:10;;;;;;;36.00;17.10;;;;;;;;;;5022795;28;20076;-76
2022/11/11 02:39:40;;;;;;;35.60;17.43;;;;;;;;;;5014045;28;20053;-76
2022/11/11 02:42:09;;;;;;;41.60;17.00;;;;;;;;;;5024495;28;20033;-76
2022/11/11 02:44:37;;;;;;;28.60;15.27;;;;;;;;;;5022348;28;20093;-76
2022/11/11 02:47:04;;;;;;;27.43;14.13;;;;;;;;;;5017461;28;20029;-76
2022/11/11 02:49:30;;;;;;;30.50;15.13;;;;;;;;;;5027170;28;20029;-76
2022/11/11 02:51:56;;;;;;;25.97;14.40;;;;;;;;;;5032145;28;20040;-75
2022/11/11 02:54:22;;;;;;;30.57;14.80;;;;;;;;;;5014382;28;20056;-76
2022/11/11 02:57:09;;;;;;;31.73;15.90;;;;;;;;;;5024025;28;20731;-76
2022/11/11 02:59:35;;;;;;;42.00;16.07;;;;;;;;;;5016254;28;20068;-76
2022/11/11 03:02:04;;;;;;;28.93;15.23;;;;;;;;;;5015219;28;20025;-75
2022/11/11 03:04:31;;;;;;;26.63;14.50;;;;;;;;;;5014192;28;20033;-76
2022/11/11 03:06:59;;;;;;;31.60;14.47;;;;;;;;;;5021117;28;20029;-75
2022/11/11 03:09:28;;;;;;;33.27;15.47;;;;;;;;;;5015425;28;20041;-76
2022/11/11 03:11:54;;;;;;;28.70;15.37;;;;;;;;;;5014455;28;20022;-75
2022/11/11 03:14:23;;;;;;;38.20;15.83;;;;;;;;;;5027248;28;20386;-75
2022/11/11 03:19:33;;;;;;;39.37;15.73;;;;;;;;;;5014378;28;20481;-76
2022/11/11 03:22:01;;;;;;;37.13;16.90;;;;;;;;;;5024661;28;20087;-75
2022/11/11 03:25:36;;;;;;;36.60;16.13;;;;;;;;;;5015210;28;20030;-75
2022/11/11 03:27:13;;;;;;;32.37;15.10;;;;;;;;;;5015120;28;20998;-76
2022/11/11 03:29:42;;;;;;;34.60;15.30;;;;;;;;;;5014200;28;20430;-76
2022/11/11 03:32:08;;;;;;;29.53;14.70;;;;;;;;;;5018293;28;20030;-76
2022/11/11 03:34:35;;;;;;;31.80;14.67;;;;;;;;;;5024423;28;20180;-76
2022/11/11 03:39:45;;;;;;;34.13;16.67;;;;;;;;;;5018328;28;20104;-75
2022/11/11 03:42:11;;;;;;;37.50;16.93;;;;;;;;;;5017711;28;20034;-76
2022/11/11 03:44:40;;;;;;;33.10;16.37;;;;;;;;;;5027359;28;20033;-76
2022/11/11 03:47:06;;;;;;;40.00;15.67;;;;;;;;;;5015853;28;20076;-76
2022/11/11 03:49:32;;;;;;;34.67;15.43;;;;;;;;;;5017672;28;20053;-76
2022/11/11 03:51:58;;;;;;;36.53;15.40;;;;;;;;;;5017726;28;20079;-74
2022/11/11 03:54:24;;;;;;;31.67;15.20;;;;;;;;;;5019494;28;20053;-75
2022/11/11 03:56:50;;;;;;;28.30;13.63;;;;;;;;;;5019580;28;20034;-76
2022/11/11 03:59:18;;;;;;;33.10;15.53;;;;;;;;;;5033463;28;20343;-75
2022/11/11 04:18:12;;;;;;;37.70;16.30;;;;;;;;;;5017916;28;20037;-76
2022/11/11 04:23:23;;;;;;;39.63;17.77;;;;;;;;;;5016170;28;20048;-76
2022/11/11 04:25:49;;;;;;;42.13;16.10;;;;;;;;;;5016419;28;20033;-76
2022/11/11 04:31:02;;;;;;;41.90;18.43;;;;;;;;;;5018702;28;20072;-75
2022/11/11 04:33:28;;;;;;;40.27;17.67;;;;;;;;;;5018260;28;20052;-75
2022/11/11 04:35:54;;;;;;;38.13;17.73;;;;;;;;;;5017260;28;20121;-75
2022/11/11 04:41:07;;;;;;;43.17;18.07;;;;;;;;;;5017302;28;21045;-76
2022/11/11 04:45:26;;;;;;;41.27;19.03;;;;;;;;;;5025481;28;20029;-76
2022/11/11 04:46:22;;;;;;;42.03;17.43;;;;;;;;;;5017274;28;20029;-76
2022/11/11 04:48:50;;;;;;;44.33;19.43;;;;;;;;;;5025138;28;20053;-75
2022/11/11 04:51:16;;;;;;;39.97;18.17;;;;;;;;;;5016507;28;20404;-76
2022/11/11 04:53:42;;;;;;;30.33;16.37;;;;;;;;;;5017974;28;20087;-75
2022/11/11 04:59:14;;;;;;;40.50;17.03;;;;;;;;;;5017477;28;20150;-76
2022/11/11 05:04:24;;;;;;;43.97;18.07;;;;;;;;;;5017516;28;20394;-75
2022/11/11 05:09:37;;;;;;;40.30;18.53;;;;;;;;;;5019022;28;20408;-77
2022/11/11 05:12:03;;;;;;;40.07;17.27;;;;;;;;;;5025724;28;20033;-76
2022/11/11 05:22:43;;;;;;;40.70;16.63;;;;;;;;;;5016262;28;20104;-75
2022/11/11 05:25:28;;;;;;;44.77;18.37;;;;;;;;;;5028712;28;20057;-76
2022/11/11 05:27:54;;;;;;;41.83;18.97;;;;;;;;;;5017218;28;20410;-76
2022/11/11 05:30:23;;;;;;;44.67;19.43;;;;;;;;;;5016285;28;20045;-76
2022/11/11 05:32:49;;;;;;;42.00;16.70;;;;;;;;;;5018301;28;20068;-76
2022/11/11 05:35:18;;;;;;;34.77;17.87;;;;;;;;;;5016390;28;20056;-75
2022/11/11 05:38:19;;;;;;;41.73;17.60;;;;;;;;;;5013800;28;20671;-75
2022/11/11 05:40:33;;;;;;;31.97;16.60;;;;;;;;;;5016191;28;20034;-75
2022/11/11 05:43:01;;;;;;;34.93;18.30;;;;;;;;;;5012879;28;20037;-77
2022/11/11 05:45:27;;;;;;;35.07;17.90;;;;;;;;;;5015995;28;20099;-76
2022/11/11 05:47:53;;;;;;;41.33;16.67;;;;;;;;;;5017124;28;20592;-74
2022/11/11 05:50:19;;;;;;;35.67;17.30;;;;;;;;;;5017878;28;20033;-76
2022/11/11 05:52:49;;;;;;;36.67;17.97;;;;;;;;;;5021773;28;20045;-76
2022/11/11 05:55:15;;;;;;;44.80;17.77;;;;;;;;;;5025179;28;20034;-75
2022/11/11 05:57:41;;;;;;;42.23;16.93;;;;;;;;;;5017459;28;20044;-76
2022/11/11 06:00:09;;;;;;;41.10;17.93;;;;;;;;;;5018824;28;20029;-76
2022/11/11 06:02:35;;;;;;;32.83;16.80;;;;;;;;;;5013046;28;20047;-77
2022/11/11 06:05:01;;;;;;;33.17;16.30;;;;;;;;;;5027319;28;20061;-76
2022/11/11 06:07:30;;;;;;;35.93;17.17;;;;;;;;;;5013365;28;20064;-76
2022/11/11 06:10:29;;;;;;;43.17;19.00;;;;;;;;;;5014217;28;20711;-77
2022/11/11 06:13:01;;;;;;;44.33;19.17;;;;;;;;;;5014643;28;20535;-75
2022/11/11 06:15:27;;;;;;;42.37;17.40;;;;;;;;;;5017202;28;20711;-76
2022/11/11 06:17:53;;;;;;;44.70;18.00;;;;;;;;;;5015030;28;20036;-77
2022/11/11 06:20:19;;;;;;;37.17;17.23;;;;;;;;;;5016983;28;20037;-74
2022/11/11 06:22:57;;;;;;;42.47;16.67;;;;;;;;;;5015055;28;20034;-77
2022/11/11 06:28:12;;;;;;;42.70;17.83;;;;;;;;;;5017789;28;20048;-76
2022/11/11 06:30:39;;;;;;;37.97;17.33;;;;;;;;;;5026619;28;20030;-76
2022/11/11 06:33:08;;;;;;;37.97;17.50;;;;;;;;;;5028078;28;20055;-76
2022/11/11 06:35:38;;;;;;;37.83;17.23;;;;;;;;;;5011690;28;20439;-76
2022/11/11 06:38:06;;;;;;;41.63;18.73;;;;;;;;;;5015369;28;20033;-76
2022/11/11 06:40:32;;;;;;;38.93;18.07;;;;;;;;;;5023129;28;20040;-75
2022/11/11 06:42:59;;;;;;;43.80;21.07;;;;;;;;;;5023378;28;20060;-75
2022/11/11 06:45:25;;;;;;;43.70;20.10;;;;;;;;;;5011090;28;20033;-75
2022/11/11 06:47:51;;;;;;;41.73;18.13;;;;;;;;;;5017780;28;20109;-76
2022/11/11 06:50:18;;;;;;;43.13;17.50;;;;;;;;;;5027199;28;20175;-75
2022/11/11 06:52:44;;;;;;;38.70;17.87;;;;;;;;;;5013352;28;20132;-76
2022/11/11 06:55:13;;;;;;;41.03;18.17;;;;;;;;;;5026002;28;20398;-75
2022/11/11 06:57:42;;;;;;;45.87;20.50;;;;;;;;;;5015794;28;20030;-76
2022/11/11 07:00:08;;;;;;;45.90;19.10;;;;;;;;;;5029864;28;20065;-76
2022/11/11 07:02:37;;;;;;;42.27;18.87;;;;;;;;;;5029821;28;20030;-75
2022/11/11 07:05:03;;;;;;;46.90;20.20;;;;;;;;;;5015220;28;20061;-75
2022/11/11 07:07:29;;;;;;;42.13;20.30;;;;;;;;;;5021454;28;20767;-76
2022/11/11 07:09:55;;;;;;;47.23;19.10;;;;;;;;;;5019923;28;20022;-76
2022/11/11 07:12:21;;;;;;;47.77;21.50;;;;;;;;;;5023231;28;20030;-75
2022/11/11 07:14:47;;;;;;;50.80;19.80;;;;;;;;;;5035340;28;20088;-76
2022/11/11 07:17:16;;;;;;;46.43;21.80;;;;;;;;;;5030423;28;20025;-76
2022/11/11 07:19:42;;;;;;;39.60;20.23;;;;;;;;;;5035449;28;20148;-76
2022/11/11 07:22:08;;;;;;;42.60;18.73;;;;;;;;;;5019473;28;21731;-76
2022/11/11 07:24:34;;;;;;;41.10;20.53;;;;;;;;;;5024186;28;20061;-76
2022/11/11 07:27:00;;;;;;;38.00;18.20;;;;;;;;;;5022897;28;20041;-77
2022/11/11 07:29:28;;;;;;;44.17;20.50;;;;;;;;;;5029446;28;20061;-77
2022/11/11 07:31:54;;;;;;;40.73;19.27;;;;;;;;;;5027620;28;20025;-75
2022/11/11 07:34:20;;;;;;;44.07;20.17;;;;;;;;;;5019812;28;20044;-75
2022/11/11 07:36:46;;;;;;;44.27;19.47;;;;;;;;;;5012284;28;20034;-76
2022/11/11 07:39:15;;;;;;;45.67;19.57;;;;;;;;;;5033813;28;20104;-77
2022/11/11 07:41:43;;;;;;;38.60;21.20;;;;;;;;;;5029899;28;20363;-77
2022/11/11 07:44:09;;;;;;;39.80;20.33;;;;;;;;;;5018194;28;20052;-76
2022/11/11 07:46:35;;;;;;;31.53;18.93;;;;;;;;;;5035401;28;20030;-75
2022/11/11 07:49:01;;;;;;;41.87;19.67;;;;;;;;;;5018257;28;20053;-74
2022/11/11 07:51:27;;;;;;;37.60;19.23;;;;;;;;;;5035569;28;20431;-75
2022/11/11 07:53:53;;;;;;;36.43;18.07;;;;;;;;;;5020011;28;20044;-75
2022/11/11 07:56:19;;;;;;;40.73;18.17;;;;;;;;;;5033074;28;20034;-75
2022/11/11 07:58:48;;;;;;;37.37;19.30;;;;;;;;;;5017463;28;20049;-75
2022/11/11 08:01:14;;;;;;;37.37;18.93;;;;;;;;;;5017402;28;20026;-76
2022/11/11 08:03:48;;;;;;;38.33;17.23;;;;;;;;;;5019091;28;20037;-74
2022/11/11 08:06:23;;;;;;;29.90;16.83;;;;;;;;;;5033070;28;20030;-75
2022/11/11 08:08:52;;;;;;;32.60;17.27;;;;;;;;;;5017442;28;20036;-75
2022/11/11 08:13:39;;;;;;;37.67;18.40;;;;;;;;;;5037589;28;20083;-74
2022/11/11 08:14:04;;;;;;;33.80;17.30;;;;;;;;;;5018350;28;20367;-75
2022/11/11 08:16:32;;;;;;;28.53;15.97;;;;;;;;;;5018295;28;20454;-75
2022/11/11 08:18:58;;;;;;;31.43;16.43;;;;;;;;;;5018935;28;20044;-75
2022/11/11 08:21:24;;;;;;;25.93;15.73;;;;;;;;;;5017278;28;20109;-75
2022/11/11 08:23:51;;;;;;;30.47;16.20;;;;;;;;;;5015985;28;20597;-75
2022/11/11 08:26:17;;;;;;;38.10;14.93;;;;;;;;;;5016997;28;20079;-75
2022/11/11 08:28:44;;;;;;;31.17;14.67;;;;;;;;;;5015999;28;20340;-75
2022/11/11 08:31:10;;;;;;;24.57;14.03;;;;;;;;;;5016663;28;20029;-75
2022/11/11 08:33:36;;;;;;;26.87;14.10;;;;;;;;;;5032949;28;20465;-75
2022/11/11 08:36:04;;;;;;;31.63;14.03;;;;;;;;;;5015642;28;20446;-75
2022/11/11 08:38:30;;;;;;;25.33;13.20;;;;;;;;;;5023572;28;20759;-75
2022/11/11 08:40:59;;;;;;;26.27;14.67;;;;;;;;;;5014829;28;20541;-76
2022/11/11 08:43:25;;;;;;;28.27;14.37;;;;;;;;;;5016421;28;20458;-76
2022/11/11 08:45:56;;;;;;;26.30;13.57;;;;;;;;;;5016596;28;20446;-76
2022/11/11 08:48:22;;;;;;;27.37;13.97;;;;;;;;;;5019168;28;20030;-76
2022/11/11 08:50:51;;;;;;;27.10;12.93;;;;;;;;;;5017020;28;20440;-77
2022/11/11 08:53:17;;;;;;;21.23;13.13;;;;;;;;;;5016127;28;20070;-77
2022/11/11 08:55:43;;;;;;;18.20;12.43;;;;;;;;;;5016304;28;20597;-78
2022/11/11 08:58:12;;;;;;;22.27;12.43;;;;;;;;;;5016773;28;20022;-76
2022/11/11 09:00:39;;;;;;;23.17;12.43;;;;;;;;;;5015770;28;20033;-78
2022/11/11 09:03:08;;;;;;;23.70;13.20;;;;;;;;;;5015609;28;20033;-78
2022/11/11 09:05:34;;;;;;;24.23;14.03;;;;;;;;;;5016747;28;20096;-77
2022/11/11 09:08:01;;;;;;;22.67;13.40;;;;;;;;;;5016675;28;20021;-76
2022/11/11 09:10:29;;;;;;;26.53;14.53;;;;;;;;;;5015858;28;20030;-77
2022/11/11 09:12:58;;;;;;;28.43;13.43;;;;;;;;;;5016406;28;20387;-76
2022/11/11 09:15:25;;;;;;;20.50;11.40;;;;;;;;;;5031512;28;20026;-77
2022/11/11 09:17:51;;;;;;;18.70;11.73;;;;;;;;;;5048689;28;20096;-76
2022/11/11 09:20:17;;;;;;;20.97;10.57;;;;;;;;;;5015623;28;20087;-78
2022/11/11 09:22:44;;;;;;;20.30;11.50;;;;;;;;;;5015377;28;20040;-78
2022/11/11 09:25:10;;;;;;;19.23;11.17;;;;;;;;;;5015447;28;20407;-78
2022/11/11 09:27:36;;;;;;;22.50;11.63;;;;;;;;;;5014818;28;20111;-78
2022/11/11 09:30:03;;;;;;;17.97;11.47;;;;;;;;;;5016344;28;20025;-77
2022/11/11 09:32:29;;;;;;;20.70;10.53;;;;;;;;;;5015086;28;20060;-77
2022/11/11 09:34:55;;;;;;;19.47;10.37;;;;;;;;;;5031332;28;20044;-77
2022/11/11 09:37:24;;;;;;;22.40;11.50;;;;;;;;;;5015905;28;20041;-77
2022/11/11 09:39:54;;;;;;;17.90;8.90;;;;;;;;;;5028342;28;20030;-78
2022/11/11 09:42:41;;;;;;;18.50;10.30;;;;;;;;;;5031162;28;20067;-78
2022/11/11 09:45:26;;;;;;;11.43;7.70;;;;;;;;;;5031196;28;20033;-78
2022/11/11 09:48:04;;;;;;;14.70;8.50;;;;;;;;;;5012855;28;20449;-78
2022/11/11 09:50:34;;;;;;;14.73;7.90;;;;;;;;;;5015897;28;20026;-77
2022/11/11 09:53:00;;;;;;;14.53;8.47;;;;;;;;;;5030916;28;20042;-77
2022/11/11 09:55:38;;;;;;;16.40;8.13;;;;;;;;;;5010473;28;20034;-78
2022/11/11 09:58:10;;;;;;;11.77;6.87;;;;;;;;;;5038710;28;20133;-78
2022/11/11 10:00:37;;;;;;;19.20;7.53;;;;;;;;;;5014625;28;20473;-77
2022/11/11 10:03:11;;;;;;;11.03;7.17;;;;;;;;;;5013305;28;20061;-77
2022/11/11 10:05:47;;;;;;;16.10;7.40;;;;;;;;;;5026549;28;20021;-76
2022/11/11 10:08:18;;;;;;;17.23;7.07;;;;;;;;;;5011346;28;20022;-77
2022/11/11 10:10:50;;;;;;;11.93;6.47;;;;;;;;;;5014358;28;20049;-77
2022/11/11 10:13:33;;;;;;;11.63;7.15;;;;;;;;;;5027551;28;20038;-76
2022/11/11 10:15:59;;;;;;;15.38;7.10;;;;;;;;;;5032251;28;20443;-77
2022/11/11 10:18:31;;;;;;;13.20;7.47;;;;;;;;;;5014311;28;20040;-77
2022/11/11 10:20:57;;;;;;;15.15;7.72;;;;;;;;;;5010314;28;20041;-77
2022/11/11 10:23:29;;;;;;;11.77;6.17;;;;;;;;;;5010773;28;20033;-77
2022/11/11 10:25:56;;;;;;;16.75;7.45;;;;;;;;;;5019230;28;20038;-77
2022/11/11 10:28:28;;;;;;;19.33;8.60;;;;;;;;;;5015315;28;20018;-76
2022/11/11 10:30:54;;;;;;;11.87;7.00;;;;;;;;;;5023200;28;20163;-77
2022/11/11 10:33:24;;;;;;;14.77;6.10;;;;;;;;;;5015411;28;20024;-78
2022/11/11 10:35:53;;;;;;;13.23;6.43;;;;;;;;;;5045204;28;20025;-78
2022/11/11 10:38:38;;;;;;;14.10;6.80;;;;;;;;;;5041166;28;20021;-77
2022/11/11 10:41:19;;;;;;;15.40;6.90;;;;;;;;;;5038373;28;20084;-77
2022/11/11 10:43:47;;;;;;;12.80;6.73;;;;;;;;;;5011983;28;20029;-78
2022/11/11 10:46:20;;;;;;;15.97;8.37;;;;;;;;;;5011062;28;20021;-77
2022/11/11 10:48:51;;;;;;;12.77;6.40;;;;;;;;;;5013567;28;20072;-77
2022/11/11 10:51:18;;;;;;;12.87;6.43;;;;;;;;;;5026176;28;20018;-78
2022/11/11 10:53:47;;;;;;;13.97;6.80;;;;;;;;;;5013815;28;20029;-77
2022/11/11 10:56:20;;;;;;;11.47;6.00;;;;;;;;;;5025922;28;20033;-77
2022/11/11 10:58:56;;;;;;;17.13;6.00;;;;;;;;;;5023570;28;20057;-79
2022/11/11 11:01:30;;;;;;;11.20;5.13;;;;;;;;;;5029244;28;20026;-77
2022/11/11 11:04:04;;;;;;;13.30;5.93;;;;;;;;;;5028667;28;20026;-77
2022/11/11 11:06:33;;;;;;;12.93;6.73;;;;;;;;;;5037101;28;20026;-78
2022/11/11 11:09:02;;;;;;;8.03;4.40;;;;;;;;;;5014090;28;20022;-77
2022/11/11 11:11:36;;;;;;;11.03;4.83;;;;;;;;;;5030993;28;20030;-76
2022/11/11 11:14:03;;;;;;;10.93;5.27;;;;;;;;;;5013680;28;20121;-76
2022/11/11 11:16:34;;;;;;;7.10;4.67;;;;;;;;;;5030202;28;20076;-76
2022/11/11 11:19:15;;;;;;;7.00;5.13;;;;;;;;;;5013611;28;20040;-77
2022/11/11 11:21:49;;;;;;;11.23;5.03;;;;;;;;;;5014436;28;20022;-78
2022/11/11 11:24:19;;;;;;;8.60;4.57;;;;;;;;;;5024640;28;20312;-77
2022/11/11 11:26:46;;;;;;;12.93;4.67;;;;;;;;;;5013386;28;20021;-77
2022/11/11 11:29:14;;;;;;;8.77;4.23;;;;;;;;;;5020602;28;20034;-77
2022/11/11 11:31:41;;;;;;;11.30;4.83;;;;;;;;;;5013661;28;20022;-77
2022/11/11 11:34:08;;;;;;;8.30;4.27;;;;;;;;;;5013648;28;20037;-77
2022/11/11 11:36:34;;;;;;;19.10;6.17;;;;;;;;;;5013429;28;20112;-76
2022/11/11 11:39:00;;;;;;;7.90;4.23;;;;;;;;;;5029738;28;20060;-77
2022/11/11 11:41:49;;;;;;;6.30;3.13;;;;;;;;;;5014659;28;20438;-78
2022/11/11 11:44:31;;;;;;;9.07;3.90;;;;;;;;;;5028974;28;20026;-78
2022/11/11 11:47:14;;;;;;;7.63;3.72;;;;;;;;;;5014736;28;20116;-77
2022/11/11 11:49:40;;;;;;;6.30;3.07;;;;;;;;;;5013618;28;20065;-77
2022/11/11 11:52:19;;;;;;;8.10;3.03;;;;;;;;;;5014256;28;20068;-77
2022/11/11 11:55:14;;;;;;;8.50;3.07;;;;;;;;;;5033427;28;20124;-77
2022/11/11 11:57:55;;;;;;;6.70;3.33;;;;;;;;;;5009179;28;20049;-76
2022/11/11 12:00:23;;;;;;;7.77;2.90;;;;;;;;;;5027068;28;20022;-77
2022/11/11 12:02:49;;;;;;;9.30;3.97;;;;;;;;;;5037532;28;20049;-77
2022/11/11 12:05:15;;;;;;;7.75;2.58;;;;;;;;;;5017775;28;20026;-77
2022/11/11 12:07:53;;;;;;;8.18;2.90;;;;;;;;;;5016772;28;20056;-77
2022/11/11 12:10:38;;;;;;;5.00;2.33;;;;;;;;;;5017205;28;20088;-77
2022/11/11 12:13:20;;;;;;;8.48;2.60;;;;;;;;;;5032866;28;20047;-77
2022/11/11 12:15:57;;;;;;;12.13;2.38;;;;;;;;;;5050299;28;20033;-78
2022/11/11 12:18:23;;;;;;;5.43;2.63;;;;;;;;;;5049478;28;20089;-78
2022/11/11 12:20:52;;;;;;;8.02;2.50;;;;;;;;;;5016449;28;20041;-77
2022/11/11 12:23:42;;;;;;;8.05;3.90;;;;;;;;;;5016716;28;20136;-77
2022/11/11 12:26:18;;;;;;;9.18;4.03;;;;;;;;;;5017018;28;20079;-78
2022/11/11 12:28:47;;;;;;;5.18;2.28;;;;;;;;;;5017680;28;20021;-77
2022/11/11 12:31:13;;;;;;;7.40;2.10;;;;;;;;;;5023085;28;20034;-79
2022/11/11 12:33:51;;;;;;;3.58;1.77;;;;;;;;;;5019095;28;20041;-77
2022/11/11 12:36:36;;;;;;;6.07;2.80;;;;;;;;;;5044464;28;20038;-77
2022/11/11 12:39:21;;;;;;;2.28;1.38;;;;;;;;;;5033341;28;20040;-77
2022/11/11 12:41:50;;;;;;;6.80;3.00;;;;;;;;;;5016462;28;20513;-78
2022/11/11 12:44:17;;;;;;;6.57;2.30;;;;;;;;;;5018335;28;20018;-78
2022/11/11 12:47:02;;;;;;;9.50;2.65;;;;;;;;;;5017348;28;20025;-77
2022/11/11 12:49:40;;;;;;;4.57;1.85;;;;;;;;;;5016124;28;20017;-77
2022/11/11 12:52:06;;;;;;;9.75;2.15;;;;;;;;;;5015751;28;20033;-78
2022/11/11 12:54:39;;;;;;;6.90;1.85;;;;;;;;;;5011759;28;20041;-76
2022/11/11 12:57:09;;;;;;;8.43;2.25;;;;;;;;;;5016476;28;20070;-77
2022/11/11 12:59:43;;;;;;;7.28;2.55;;;;;;;;;;5016382;28;20044;-78
2022/11/11 13:02:27;;;;;;;3.63;1.58;;;;;;;;;;5016006;28;20021;-78
2022/11/11 13:05:06;;;;;;;3.88;1.92;;;;;;;;;;5017069;28;20044;-78
2022/11/11 13:07:55;;;;;;;4.35;1.52;;;;;;;;;;5016037;28;20034;-77
2022/11/11 13:10:33;;;;;;;10.00;3.03;;;;;;;;;;5015524;28;20068;-77
2022/11/11 13:13:18;;;;;;;8.05;2.17;;;;;;;;;;5013660;28;20029;-77
2022/11/11 13:15:44;;;;;;;5.85;1.77;;;;;;;;;;5020149;28;20109;-76
2022/11/11 13:18:13;;;;;;;8.80;1.77;;;;;;;;;;5048861;28;20030;-76
2022/11/11 13:21:03;;;;;;;7.47;1.50;;;;;;;;;;5019343;28;20076;-77
2022/11/11 13:23:29;;;;;;;6.10;1.67;;;;;;;;;;5012402;28;20034;-77
2022/11/11 13:25:57;;;;;;;5.10;1.80;;;;;;;;;;5015604;28;20375;-78
2022/11/11 13:28:39;;;;;;;5.45;1.52;;;;;;;;;;5016255;28;20125;-77
2022/11/11 13:31:10;;;;;;;5.63;1.67;;;;;;;;;;5006393;28;20037;-77
2022/11/11 13:33:38;;;;;;;3.50;1.58;;;;;;;;;;5015441;28;20121;-77
2022/11/11 13:36:06;;;;;;;5.28;2.20;;;;;;;;;;5031489;28;20115;-76
2022/11/11 13:38:39;;;;;;;7.03;2.60;;;;;;;;;;5017054;28;20377;-77
2022/11/11 13:41:07;;;;;;;4.80;1.65;;;;;;;;;;5027648;28;20029;-77
2022/11/11 13:43:35;;;;;;;5.93;1.73;;;;;;;;;;5020411;28;20053;-76
2022/11/11 13:46:03;;;;;;;3.72;1.00;;;;;;;;;;5013733;28;20490;-75
2022/11/11 13:48:46;;;;;;;3.53;1.50;;;;;;;;;;5026376;28;20040;-77
2022/11/11 13:51:18;;;;;;;3.28;1.27;;;;;;;;;;5016078;28;20018;-77
2022/11/11 13:53:46;;;;;;;3.65;1.38;;;;;;;;;;5016619;28;20046;-76
2022/11/11 13:56:20;;;;;;;6.78;1.50;;;;;;;;;;5016602;28;20040;-77
2022/11/11 13:58:48;;;;;;;4.28;1.55;;;;;;;;;;5018363;28;20137;-76
2022/11/11 14:01:15;;;;;;;5.55;1.42;;;;;;;;;;5016864;28;20033;-76
2022/11/11 14:03:45;;;;;;;5.57;1.15;;;;;;;;;;5023865;28;20036;-76
2022/11/11 14:06:14;;;;;;;8.15;1.52;;;;;;;;;;5015430;28;20026;-77
2022/11/11 14:08:46;;;;;;;5.80;1.45;;;;;;;;;;5024354;28;20349;-77
2022/11/11 14:11:24;;;;;;;7.07;1.85;;;;;;;;;;5028914;28;20030;-77
2022/11/11 14:13:51;;;;;;;3.17;1.30;;;;;;;;;;5015282;28;20032;-77
2022/11/11 14:16:35;;;;;;;3.25;1.20;;;;;;;;;;5028837;28;20075;-77
2022/11/11 14:19:31;;;;;;;2.08;1.05;;;;;;;;;;5016700;28;20040;-77
2022/11/11 14:22:04;;;;;;;1.98;1.08;;;;;;;;;;5026830;28;20125;-77
2022/11/11 14:24:30;;;;;;;;;;;;;;;;;;5014795;28;20049;-77
2022/11/11 14:26:57;;;;;;;3.50;1.25;;;;;;;;;;5023032;28;19944;-77
2022/11/11 14:29:25;;;;;;;2.20;1.00;;;;;;;;;;5016100;28;20032;-77
2022/11/11 14:32:30;;;;;;;3.15;1.20;;;;;;;;;;5030518;28;20026;-77
2022/11/11 14:34:59;;;;;;;3.83;1.15;;;;;;;;;;5028348;28;21754;-77
2022/11/11 14:37:31;;;;;;;5.40;1.67;;;;;;;;;;5032150;28;20033;-76
2022/11/11 14:39:57;;;;;;;3.97;0.98;;;;;;;;;;5015361;28;20128;-77
2022/11/11 14:42:35;;;;;;;7.20;0.98;;;;;;;;;;5015247;28;20033;-77
2022/11/11 14:45:04;;;;;;;9.48;1.63;;;;;;;;;;5015802;28;20026;-77
2022/11/11 14:47:40;;;;;;;3.70;1.13;;;;;;;;;;5026171;28;20041;-77
2022/11/11 14:50:24;;;;;;;2.67;1.30;;;;;;;;;;5030164;28;20036;-78
2022/11/11 14:52:51;;;;;;;4.95;2.00;;;;;;;;;;5011093;28;20034;-77
2022/11/11 14:55:20;;;;;;;4.47;1.30;;;;;;;;;;5017567;28;20022;-77
2022/11/11 14:57:47;;;;;;;7.38;1.40;;;;;;;;;;5015125;28;20033;-77
2022/11/11 15:00:14;;;;;;;3.92;1.30;;;;;;;;;;5015237;28;20035;-76
2022/11/11 15:02:48;;;;;;;5.97;2.13;;;;;;;;;;5019634;28;20036;-77
2022/11/11 15:05:17;;;;;;;5.43;1.38;;;;;;;;;;5025445;28;20037;-77
2022/11/11 15:07:59;;;;;;;4.22;2.03;;;;;;;;;;5028117;28;20038;-77
2022/11/11 15:10:25;;;;;;;7.28;1.58;;;;;;;;;;5021383;28;20025;-76
2022/11/11 15:12:51;;;;;;;3.60;1.70;;;;;;;;;;5014670;28;20079;-77
2022/11/11 15:15:24;;;;;;;4.78;1.63;;;;;;;;;;5024940;28;20029;-77
2022/11/11 15:18:04;;;;;;;3.03;1.77;;;;;;;;;;5024028;28;20022;-77
2022/11/11 15:20:42;;;;;;;4.00;1.70;;;;;;;;;;5022374;28;20029;-77
2022/11/11 15:23:29;;;;;;;3.37;2.03;;;;;;;;;;5016032;28;20034;-77
2022/11/11 15:26:07;;;;;;;6.73;1.90;;;;;;;;;;5027311;28;20583;-77
2022/11/11 15:28:33;;;;;;;4.60;1.87;;;;;;;;;;5030437;28;20034;-76
2022/11/11 15:31:15;;;;;;;5.77;1.70;;;;;;;;;;5030379;28;20038;-76
2022/11/11 15:33:41;;;;;;;6.47;1.55;;;;;;;;;;5020618;28;20113;-76
2022/11/11 15:36:15;;;;;;;6.73;1.67;;;;;;;;;;5017589;28;20075;-77
2022/11/11 15:38:41;;;;;;;2.80;1.27;;;;;;;;;;5029647;28;20038;-76
2022/11/11 15:41:20;;;;;;;7.00;2.13;;;;;;;;;;5025594;28;20612;-77
2022/11/11 15:43:46;;;;;;;5.37;1.70;;;;;;;;;;5018201;28;20148;-76
2022/11/11 15:46:20;;;;;;;3.57;1.90;;;;;;;;;;5024563;28;20119;-75
2022/11/11 15:48:46;;;;;;;4.97;1.93;;;;;;;;;;5032643;28;20040;-76
2022/11/11 15:51:15;;;;;;;10.30;4.20;;;;;;;;;;5017571;28;20482;-78
2022/11/11 15:53:41;;;;;;;5.83;2.47;;;;;;;;;;5028648;28;20099;-77